Terminal Aerodrome Forecast
Issued by NWS

Home | Current Version | Previous Version | Text Only | Print | Product List | Glossary On
Versions: 1 2 3 4 5 6 7 8 9 10 11 12 13 14 15 16 17 18 19 20 21 22 23 24 25 26 27 28 29 30 31
000
FTPA31 PHFO 301100
TAFLIH
TAF
PHLI 301128Z 3012/0112 29004KT P6SM VCSH SCT015 BKN040 BKN080
     FM302000 06007KT P6SM SCT025
     FM302300 06007KT P6SM VCSH SCT025 BKN040
     FM010500 04005KT P6SM SCT023 BKN045
     FM010900 29004KT P6SM SCT023=

USA.gov is the U.S. government's official web portal to all federal, state and local government web resources and services.